Time;durP1;ratioP1;P1;durP2;ratioP2;P2;SDS_P1;SDS_P2;PMS_P1;PMS_P2;Temp;Humidity;BMP_temperature;BMP_pressure;BME280_temperature;BME280_humidity;BME280_pressure;Samples;Min_cycle;Max_cycle;Signal;HPM_P1;HPM_P2
2022/09/06 00:10:03;;;;;;;4.9;9.4;;;;;;;11.3;100;99290;;;;
2022/09/06 00:20:03;;;;;;;4.9;9.4;;;;;;;11.3;100;99290;;;;
2022/09/06 00:30:03;;;;;;;4.2;7.3;;;;;;;11.3;100;99270;;;;
2022/09/06 00:41:03;;;;;;;4.2;7.3;;;;;;;11.2;100;99280;;;;
2022/09/06 00:51:03;;;;;;;4.2;7.3;;;;;;;11.1;100;99270;;;;
2022/09/06 01:01:04;;;;;;;3.8;7.9;;;;;;;11;100;99280;;;;
2022/09/06 01:12:03;;;;;;;3.8;7.9;;;;;;;11;100;99290;;;;
2022/09/06 01:23:03;;;;;;;3.8;7.9;;;;;;;10.7;100;99280;;;;
2022/09/06 01:33:03;;;;;;;4;7.9;;;;;;;10.5;100;99270;;;;
2022/09/06 01:43:03;;;;;;;4;7.9;;;;;;;10.5;100;99270;;;;
2022/09/06 01:53:03;;;;;;;4;7.9;;;;;;;10.6;100;99270;;;;
2022/09/06 02:03:03;;;;;;;3.8;6.2;;;;;;;10.7;100;99260;;;;
2022/09/06 02:13:03;;;;;;;3.8;6.2;;;;;;;10.6;100;99270;;;;
2022/09/06 02:23:03;;;;;;;3.8;6.2;;;;;;;10.5;100;99250;;;;
2022/09/06 02:34:03;;;;;;;3.2;6.5;;;;;;;10.3;100;99250;;;;
2022/09/06 02:44:03;;;;;;;3.2;6.5;;;;;;;10.2;100;99250;;;;
2022/09/06 02:54:03;;;;;;;3.2;6.5;;;;;;;10;100;99250;;;;
2022/09/06 03:04:03;;;;;;;3;6.9;;;;;;;9.9;100;99240;;;;
2022/09/06 03:15:03;;;;;;;3;6.9;;;;;;;9.8;100;99230;;;;
2022/09/06 03:26:03;;;;;;;3.3;7.6;;;;;;;9.5;100;99230;;;;
2022/09/06 03:36:03;;;;;;;3.3;7.6;;;;;;;9.4;100;99230;;;;
2022/09/06 03:46:03;;;;;;;3.3;7.6;;;;;;;9.1;100;99230;;;;
2022/09/06 03:56:03;;;;;;;2.9;5.1;;;;;;;8.9;100;99230;;;;
2022/09/06 04:07:03;;;;;;;2.9;5.1;;;;;;;8.7;100;99220;;;;
2022/09/06 04:17:03;;;;;;;2.9;5.1;;;;;;;8.7;100;99220;;;;
2022/09/06 04:27:03;;;;;;;2.6;6.7;;;;;;;8.8;100;99230;;;;
2022/09/06 04:37:03;;;;;;;2.6;6.7;;;;;;;8.8;100;99220;;;;
2022/09/06 04:48:03;;;;;;;2.6;6.7;;;;;;;9.1;100;99230;;;;
2022/09/06 04:59:03;;;;;;;2.8;6.4;;;;;;;9.3;100;99230;;;;
2022/09/06 05:10:03;;;;;;;2.8;6.4;;;;;;;9.4;100;99230;;;;
2022/09/06 05:21:03;;;;;;;2.8;6.4;;;;;;;9.6;100;99240;;;;
2022/09/06 05:31:03;;;;;;;3.3;6.3;;;;;;;9.9;100;99240;;;;
2022/09/06 05:42:05;;;;;;;3.3;6.3;;;;;;;10.3;100;99250;;;;
2022/09/06 05:52:03;;;;;;;3.3;6.3;;;;;;;10.7;100;99260;;;;
2022/09/06 06:03:03;;;;;;;3.7;6.4;;;;;;;10.9;100;99260;;;;
2022/09/06 06:12:42;;;;;;;3.7;6.4;;;;;;;11.2;100;99260;;;;
2022/09/06 06:25:25;;;;;;;4.2;9.5;;;;;;;11.8;100;99260;;;;
2022/09/06 06:36:23;;;;;;;4.2;9.5;;;;;;;11.8;100;99250;;;;
2022/09/06 06:46:22;;;;;;;4.2;9.5;;;;;;;12.2;100;99260;;;;
2022/09/06 06:57:22;;;;;;;4.4;9;;;;;;;12.2;100;99270;;;;
2022/09/06 07:07:22;;;;;;;4.4;9;;;;;;;12.8;100;99270;;;;
2022/09/06 07:18:22;;;;;;;4.4;9;;;;;;;13.3;100;99260;;;;
2022/09/06 07:29:22;;;;;;;4.4;8.2;;;;;;;13.6;100;99270;;;;
2022/09/06 07:39:22;;;;;;;4.4;8.2;;;;;;;14.2;100;99270;;;;
2022/09/06 07:49:22;;;;;;;4.4;8.2;;;;;;;15;100;99280;;;;
2022/09/06 07:59:22;;;;;;;4.6;9.3;;;;;;;15.4;100;99280;;;;
2022/09/06 08:10:22;;;;;;;4.6;9.3;;;;;;;16;100;99260;;;;
2022/09/06 08:21:22;;;;;;;4.6;9.3;;;;;;;16.4;100;99270;;;;
2022/09/06 08:31:22;;;;;;;4.5;7.5;;;;;;;16.5;100;99270;;;;
2022/09/06 08:42:22;;;;;;;4.5;7.5;;;;;;;17;100;99260;;;;
2022/09/06 08:52:22;;;;;;;4.5;7.5;;;;;;;17.4;100;99260;;;;
2022/09/06 09:02:22;;;;;;;3.3;6.6;;;;;;;17.5;100;99260;;;;
2022/09/06 09:13:22;;;;;;;3.3;6.6;;;;;;;18.1;100;99250;;;;
2022/09/06 09:24:23;;;;;;;3.3;6.6;;;;;;;18;100;99240;;;;
2022/09/06 09:34:22;;;;;;;3.5;6.4;;;;;;;18;100;99240;;;;
2022/09/06 09:45:22;;;;;;;3.5;6.4;;;;;;;18.3;100;99220;;;;
2022/09/06 09:56:22;;;;;;;3.5;8.1;;;;;;;18.6;100;99210;;;;
2022/09/06 10:07:22;;;;;;;3.5;8.1;;;;;;;18.8;99.9;99200;;;;
2022/09/06 10:18:22;;;;;;;3.5;8.1;;;;;;;19.8;97.7;99180;;;;
2022/09/06 10:28:22;;;;;;;3.5;7.7;;;;;;;19.9;92.7;99170;;;;
2022/09/06 10:39:22;;;;;;;3.5;7.7;;;;;;;19.8;97.9;99160;;;;
2022/09/06 10:50:22;;;;;;;3.5;7.7;;;;;;;20.3;92.7;99160;;;;
2022/09/06 11:00:22;;;;;;;2.9;5.9;;;;;;;20.2;92.5;99160;;;;
2022/09/06 11:10:22;;;;;;;2.9;5.9;;;;;;;20.2;90.9;99160;;;;
2022/09/06 11:20:22;;;;;;;2.9;5.9;;;;;;;20.7;90.3;99140;;;;
2022/09/06 11:31:22;;;;;;;3.2;7.4;;;;;;;20.9;90.5;99130;;;;
2022/09/06 11:41:22;;;;;;;3.2;7.4;;;;;;;21.2;87.8;99130;;;;
2022/09/06 11:52:22;;;;;;;3.2;7.4;;;;;;;20.5;85.9;99120;;;;
2022/09/06 12:02:22;;;;;;;2.7;5.4;;;;;;;20.2;89.3;99120;;;;
2022/09/06 12:13:23;;;;;;;2.7;5.4;;;;;;;20.4;90.1;99110;;;;
2022/09/06 12:24:22;;;;;;;2.7;5.4;;;;;;;20.4;90.5;99100;;;;
2022/09/06 12:34:22;;;;;;;2.9;6.3;;;;;;;21.2;85.4;99090;;;;
2022/09/06 12:44:22;;;;;;;2.9;6.3;;;;;;;21.4;83.4;99080;;;;
2022/09/06 12:55:22;;;;;;;3.1;9.7;;;;;;;21.5;76.2;99070;;;;
2022/09/06 13:06:22;;;;;;;3.1;9.7;;;;;;;21;81.2;99070;;;;
2022/09/06 13:16:22;;;;;;;3.1;9.7;;;;;;;22;77.3;99070;;;;
2022/09/06 13:27:22;;;;;;;3.1;6.7;;;;;;;21.5;77.9;99060;;;;
2022/09/06 13:38:22;;;;;;;3.1;6.7;;;;;;;21.2;80.4;99050;;;;
2022/09/06 13:48:23;;;;;;;3.1;6.7;;;;;;;21;80.4;99050;;;;
2022/09/06 13:59:23;;;;;;;3.2;8.1;;;;;;;20.8;80.9;99030;;;;
2022/09/06 14:09:22;;;;;;;3.2;8.1;;;;;;;20.6;82.6;99040;;;;
2022/09/06 14:20:22;;;;;;;3.2;8.1;;;;;;;21;82.4;99020;;;;
2022/09/06 14:31:24;;;;;;;2.7;6.5;;;;;;;21.1;81.6;99000;;;;
2022/09/06 14:41:22;;;;;;;2.7;6.5;;;;;;;21.5;82.6;99000;;;;
2022/09/06 14:52:22;;;;;;;2.7;6.5;;;;;;;20.6;82.4;99000;;;;
2022/09/06 15:02:24;;;;;;;3.5;8.1;;;;;;;21.4;82.2;99000;;;;
2022/09/06 15:12:22;;;;;;;3.5;8.1;;;;;;;22.7;78.2;99000;;;;
2022/09/06 15:23:22;;;;;;;3.5;8.1;;;;;;;24.1;68.8;98990;;;;
2022/09/06 15:33:22;;;;;;;3.4;8;;;;;;;24.8;65.1;98990;;;;
2022/09/06 15:44:22;;;;;;;3.4;8;;;;;;;25.1;62.4;98990;;;;
2022/09/06 15:55:55;;;;;;;3.4;8;;;;;;;24;64.4;98980;;;;
2022/09/06 16:05:22;;;;;;;2.1;4.6;;;;;;;25.1;61.6;98980;;;;
2022/09/06 16:16:22;;;;;;;2.1;4.6;;;;;;;24.3;63.8;98970;;;;
2022/09/06 16:27:22;;;;;;;2.6;6.3;;;;;;;21.6;74.1;98950;;;;
2022/09/06 16:38:22;;;;;;;2.6;6.3;;;;;;;20.8;77.1;98960;;;;
2022/09/06 16:48:22;;;;;;;2.6;6.3;;;;;;;19.7;81.7;98950;;;;
2022/09/06 16:59:22;;;;;;;3.6;7.1;;;;;;;18.9;86.9;98940;;;;
2022/09/06 17:09:22;;;;;;;3.6;7.1;;;;;;;18.3;89.5;98930;;;;
2022/09/06 17:20:22;;;;;;;3.6;7.1;;;;;;;17.7;94.1;98930;;;;
2022/09/06 17:31:22;;;;;;;3.2;8.2;;;;;;;17.4;95.3;98930;;;;
2022/09/06 17:42:23;;;;;;;3.2;8.2;;;;;;;17;97.5;98930;;;;
2022/09/06 17:53:22;;;;;;;3.2;8.2;;;;;;;16.6;99.2;98950;;;;
2022/09/06 18:03:22;;;;;;;3.9;9.5;;;;;;;16.2;100;98960;;;;
2022/09/06 18:14:22;;;;;;;3.9;9.5;;;;;;;15.9;100;98960;;;;
2022/09/06 18:25:22;;;;;;;3.9;9.5;;;;;;;15.9;100;98960;;;;
2022/09/06 18:35:22;;;;;;;3.4;6.4;;;;;;;15.7;100;98970;;;;
2022/09/06 18:46:22;;;;;;;3.4;6.4;;;;;;;15.6;100;98970;;;;
2022/09/06 18:56:22;;;;;;;4.8;11.2;;;;;;;15.4;100;98960;;;;
2022/09/06 19:06:22;;;;;;;4.8;11.2;;;;;;;15.2;100;98970;;;;
2022/09/06 19:16:22;;;;;;;4.8;11.2;;;;;;;14.9;100;98960;;;;
2022/09/06 19:27:22;;;;;;;5.3;9.7;;;;;;;14.6;100;98950;;;;
2022/09/06 19:37:23;;;;;;;5.3;9.7;;;;;;;14.4;100;98960;;;;
2022/09/06 19:47:22;;;;;;;5.3;9.7;;;;;;;14.3;100;98950;;;;
2022/09/06 19:58:24;;;;;;;4.6;10;;;;;;;14;100;98940;;;;
2022/09/06 20:08:22;;;;;;;4.6;10;;;;;;;13.8;100;98940;;;;
2022/09/06 20:19:22;;;;;;;4.6;10;;;;;;;13.7;100;98940;;;;
2022/09/06 20:30:22;;;;;;;4;8.8;;;;;;;13.5;100;98930;;;;
2022/09/06 20:41:22;;;;;;;4;8.8;;;;;;;13.3;100;98930;;;;
2022/09/06 20:52:23;;;;;;;4;8.8;;;;;;;13.1;100;98940;;;;
2022/09/06 21:03:22;;;;;;;3.6;8;;;;;;;12.9;100;98930;;;;
2022/09/06 21:14:22;;;;;;;3.6;8;;;;;;;12.6;100;98920;;;;
2022/09/06 21:24:22;;;;;;;3.6;8;;;;;;;12.4;100;98930;;;;
2022/09/06 21:34:22;;;;;;;2.7;6.9;;;;;;;12.3;100;98940;;;;
2022/09/06 21:45:22;;;;;;;2.7;6.9;;;;;;;12.1;100;98940;;;;
2022/09/06 21:56:22;;;;;;;2.8;5.5;;;;;;;12.1;100;98920;;;;
2022/09/06 22:07:22;;;;;;;2.8;5.5;;;;;;;12.1;100;98920;;;;
2022/09/06 22:17:23;;;;;;;2.8;5.5;;;;;;;12.1;100;98920;;;;
2022/09/06 22:28:22;;;;;;;2.2;5.3;;;;;;;12.1;100;98910;;;;
2022/09/06 22:38:23;;;;;;;2.2;5.3;;;;;;;11.8;100;98900;;;;
2022/09/06 22:49:23;;;;;;;2.2;5.3;;;;;;;11.6;100;98890;;;;
2022/09/06 23:00:24;;;;;;;2.3;4.9;;;;;;;11.5;100;98880;;;;
2022/09/06 23:11:22;;;;;;;2.3;4.9;;;;;;;11.4;100;98890;;;;
2022/09/06 23:21:23;;;;;;;2.3;4.9;;;;;;;11.4;100;98890;;;;
2022/09/06 23:31:22;;;;;;;2;4.1;;;;;;;11.3;100;98900;;;;
2022/09/06 23:41:23;;;;;;;2;4.1;;;;;;;11;100;98880;;;;
2022/09/06 23:51:23;;;;;;;2;4.1;;;;;;;10.9;100;98860;;;;
